Achaeos — SYMW — position and weather

sailwx.info

Track history (hours):
 
Tides and Currents Weather Stations Pressure Air Temp Water Temp Dewpoint Dewpoint Depression Visibility Wind Speed Wind Dir Waves Ship Positions

Achaeos

Last reported at 2017-Nov-12 17:26 UTC. Time now 2017-Nov-22 22:18 UTC.
Position N 37°57' E 023°39'.
Warning: this ship's position is 10 days out of date.

Length 87 m; draft 3.5 m.

Type: Passenger vessel. MMSI: 239056300.

Date/timePositionNaut miles runAvg speedWind from/ knotsBaromVisibWave heightAir tempDewpointWater temp
2017-Nov-12 17:26N 37°57' E 023°39'1 2.7
2017-Nov-12 17:01N 37°56' E 023°37'713.4
2017-Nov-12 16:30N 37°51' E 023°32'713.5
2017-Nov-12 16:00N 37°46' E 023°26'2 3.5
2017-Nov-12 15:30N 37°45' E 023°25'3 5.6
2017-Nov-12 15:00N 37°43' E 023°23'3 5.6
2017-Nov-12 14:30N 37°45' E 023°25'4 8.3
2017-Nov-12 14:01N 37°48' E 023°28'713.4
2017-Nov-12 13:31N 37°53' E 023°34'510.1
2017-Nov-12 13:00N 37°57' E 023°39'0 0.0
2017-Nov-12 12:30N 37°57' E 023°39'0 0.0
2017-Nov-12 12:00N 37°57' E 023°39'0 0.0
2017-Nov-12 11:30N 37°57' E 023°39'3 7.0
2017-Nov-12 11:00N 37°54' E 023°35'713.6
2017-Nov-12 10:31N 37°49' E 023°30'611.2
2017-Nov-12 10:00N 37°45' E 023°25'3 6.8
2017-Nov-12 09:31N 37°43' E 023°22'3 5.6
2017-Nov-12 09:00N 37°44' E 023°25'4 7.4
2017-Nov-12 08:31N 37°47' E 023°27'713.4
2017-Nov-12 08:00N 37°52' E 023°33'612.5
2017-Nov-12 07:30N 37°57' E 023°39'0 0.0
2017-Nov-12 07:00N 37°57' E 023°39'0 0.0
2017-Nov-12 06:30N 37°57' E 023°39'0 0.0
2017-Nov-12 06:00N 37°57' E 023°39'0 0.0
2017-Nov-11 17:18N 37°57' E 023°39'0 0.0
2017-Nov-11 17:00N 37°57' E 023°39'510.0
2017-Nov-11 16:30N 37°53' E 023°34'713.5
2017-Nov-11 16:00N 37°48' E 023°28'4 8.3
2017-Nov-11 15:30N 37°45' E 023°25'3 6.1
2017-Nov-11 15:00N 37°47' E 023°27'713.7
2017-Nov-11 14:30N 37°52' E 023°33'612.2
2017-Nov-11 14:00N 37°57' E 023°39'0 0.0
2017-Nov-11 13:30N 37°57' E 023°39'0 0.0
2017-Nov-11 13:00N 37°57' E 023°39'510.3
2017-Nov-11 12:30N 37°53' E 023°34'713.5
2017-Nov-11 12:00N 37°48' E 023°28'4 8.6
2017-Nov-11 11:30N 37°44' E 023°25'3 6.1
2017-Nov-11 11:01N 37°43' E 023°22'4 7.6
2017-Nov-11 10:31N 37°46' E 023°25'713.6
2017-Nov-11 10:00N 37°50' E 023°31'713.8
2017-Nov-11 09:30N 37°56' E 023°37'2 3.5
2017-Nov-11 09:00N 37°57' E 023°39'0 0.0
2017-Nov-11 08:30N 37°57' E 023°39'0 0.0
2017-Nov-11 08:00N 37°57' E 023°39'0 0.0
2017-Nov-11 06:51N 37°57' E 023°39'0 0.0
2017-Nov-11 06:30N 37°57' E 023°39'0 0.0
2017-Nov-11 06:00N 37°57' E 023°39'0 0.0
2017-Nov-11 05:30N 37°57' E 023°39'0 0.0
2017-Nov-11 05:01N 37°57' E 023°39'0 0.0
2017-Nov-11 04:30N 37°57' E 023°39'0 0.0
2017-Nov-11 04:00N 37°57' E 023°39'0 0.0
2017-Nov-11 03:30N 37°57' E 023°39'0 0.0
2017-Nov-11 03:00N 37°57' E 023°39'0 0.0
2017-Nov-11 02:30N 37°57' E 023°39'0 0.0
2017-Nov-11 02:00N 37°57' E 023°39'0 0.0
2017-Nov-11 01:30N 37°57' E 023°39'0 0.0
2017-Nov-11 01:00N 37°57' E 023°39'0 0.0
2017-Nov-11 00:31N 37°57' E 023°39'0 0.0
2017-Nov-11 00:00N 37°57' E 023°39'0 0.0
2017-Nov-10 23:31N 37°57' E 023°39'0 0.0
2017-Nov-10 23:00N 37°57' E 023°39'0 0.0
2017-Nov-10 22:31N 37°57' E 023°39'0 0.0
2017-Nov-10 22:00N 37°57' E 023°39'0 0.0
2017-Nov-10 21:30N 37°57' E 023°39'0 0.0
2017-Nov-10 21:01N 37°57' E 023°39'0 0.0
2017-Nov-10 20:30N 37°57' E 023°39'0 0.0
2017-Nov-10 20:00N 37°57' E 023°39'0 0.0
2017-Nov-10 19:31N 37°57' E 023°39'0 0.0
2017-Nov-10 19:00N 37°57' E 023°39'0 0.0
2017-Nov-10 18:30N 37°57' E 023°39'0 0.0
2017-Nov-10 18:00N 37°57' E 023°39'0 0.0
2017-Nov-10 17:30N 37°57' E 023°39'0 0.5
2017-Nov-10 17:00N 37°57' E 023°38'612.9
2017-Nov-10 16:30N 37°52' E 023°33'713.7
2017-Nov-10 16:00N 37°47' E 023°26'4 7.4
2017-Nov-10 15:30N 37°44' E 023°25'0 0.4
2017-Nov-10 15:00N 37°44' E 023°25'4 8.5
2017-Nov-10 14:30N 37°48' E 023°27'713.4
2017-Nov-10 14:00N 37°52' E 023°33'612.2
2017-Nov-10 13:30N 37°57' E 023°39'0 0.0
2017-Nov-10 13:00N 37°57' E 023°39'1 1.0
2017-Nov-10 12:30N 37°56' E 023°38'713.1
2017-Nov-10 12:00N 37°51' E 023°33'713.8
2017-Nov-10 11:31N 37°47' E 023°26'4 8.2
2017-Nov-10 11:00N 37°43' E 023°24'1 2.4
2017-Nov-10 10:30N 37°44' E 023°25'4 8.8
2017-Nov-10 10:01N 37°48' E 023°28'713.7
2017-Nov-10 09:30N 37°53' E 023°34'510.9
2017-Nov-10 09:00N 37°57' E 023°39'0 0.0
2017-Nov-10 08:30N 37°57' E 023°39'0 0.0
2017-Nov-10 08:00N 37°57' E 023°39'0 0.0
2017-Nov-09 16:21N 37°57' E 023°39'1 3.5
2017-Nov-09 16:01N 37°56' E 023°37'713.4
2017-Nov-09 15:31N 37°51' E 023°32'713.6
2017-Nov-09 15:01N 37°46' E 023°26'2 3.5
2017-Nov-09 14:31N 37°45' E 023°25'3 6.3
2017-Nov-09 14:01N 37°47' E 023°27'713.6
2017-Nov-09 13:30N 37°52' E 023°34'612.0
2017-Nov-09 13:01N 37°57' E 023°39'0 0.0
2017-Nov-09 12:31N 37°57' E 023°39'4 7.2
2017-Nov-09 12:01N 37°54' E 023°35'713.3
2017-Nov-09 11:30N 37°49' E 023°30'511.2
2017-Nov-09 11:00N 37°45' E 023°25'13 8.5
2017-Nov-09 09:32N 37°54' E 023°35'012.3
2017-Nov-09 09:30N 37°55' E 023°36'3 6.2
2017-Nov-09 09:00N 37°57' E 023°39'811.8
2017-Nov-09 08:19N 37°51' E 023°32'414.0
2017-Nov-09 08:00N 37°48' E 023°28'3 7.0
2017-Nov-09 07:30N 37°45' E 023°25'3 6.2
2017-Nov-09 07:00N 37°47' E 023°27'713.6
2017-Nov-09 06:30N 37°52' E 023°33'612.2
2017-Nov-09 06:00N 37°57' E 023°38'0 0.0
2017-Nov-09 05:30N 37°57' E 023°38'0 0.0
2017-Nov-09 05:00N 37°57' E 023°38'0 0.0
2017-Nov-08 18:41N 37°57' E 023°38'0 0.6
2017-Nov-08 18:30N 37°57' E 023°38'612.9
2017-Nov-08 18:00N 37°52' E 023°33'713.8
2017-Nov-08 17:30N 37°47' E 023°27'3 5.1
2017-Nov-08 17:00N 37°45' E 023°25'612.5
2017-Nov-08 16:31N 37°50' E 023°30'713.6
2017-Nov-08 16:01N 37°55' E 023°36'3 5.8
2017-Nov-08 15:31N 37°57' E 023°38'3 6.5
2017-Nov-08 15:00N 37°54' E 023°36'713.9
2017-Nov-08 14:31N 37°49' E 023°30'611.3
2017-Nov-08 14:00N 37°45' E 023°25'3 6.0
2017-Nov-08 13:30N 37°47' E 023°27'713.5
2017-Nov-08 13:00N 37°52' E 023°33'612.5
2017-Nov-08 12:30N 37°57' E 023°39'0 0.0
2017-Nov-08 12:00N 37°57' E 023°39'0 0.0
2017-Nov-08 11:30N 37°57' E 023°39'0 0.0
2017-Nov-08 11:00N 37°57' E 023°39'0 0.0
2017-Nov-08 10:30N 37°57' E 023°39'0 0.0
2017-Nov-08 10:00N 37°57' E 023°39'0 0.0
2017-Nov-08 09:30N 37°57' E 023°39'0 0.0
2017-Nov-08 09:00N 37°57' E 023°39'0 0.0
2017-Nov-08 08:30N 37°57' E 023°39'3 5.6
2017-Nov-08 08:00N 37°55' E 023°36'713.6
2017-Nov-08 07:30N 37°50' E 023°30'612.5
2017-Nov-08 07:00N 37°45' E 023°25'2 3.2
2017-Nov-08 06:30N 37°47' E 023°26'713.5
2017-Nov-08 06:00N 37°51' E 023°32'713.6
2017-Nov-08 05:30N 37°56' E 023°37'1 1.8
2017-Nov-08 05:00N 37°57' E 023°39'0 0.0
2017-Nov-08 04:30N 37°57' E 023°39'0 0.0
2017-Nov-07 17:11N 37°57' E 023°39'0 0.4
2017-Nov-07 17:00N 37°57' E 023°38'612.5
2017-Nov-07 16:30N 37°52' E 023°33'714.0
2017-Nov-07 16:00N 37°47' E 023°27'3 5.2
2017-Nov-07 15:30N 37°45' E 023°25'0 0.0
2017-Nov-07 15:00N 37°45' E 023°25'4 7.7
2017-Nov-07 14:30N 37°48' E 023°28'713.4
2017-Nov-07 14:00N 37°53' E 023°34'510.8
2017-Nov-07 13:30N 37°57' E 023°39'0 0.0
2017-Nov-07 13:00N 37°57' E 023°39'0 0.0
2017-Nov-07 12:30N 37°57' E 023°39'0 0.2
2017-Nov-07 12:00N 37°57' E 023°38'713.1
2017-Nov-07 11:31N 37°52' E 023°33'714.1
2017-Nov-07 11:00N 37°47' E 023°26'2 4.8
2017-Nov-07 10:30N 37°45' E 023°25'3 6.0
2017-Nov-07 10:00N 37°47' E 023°27'713.4
2017-Nov-07 09:30N 37°52' E 023°33'612.7
2017-Nov-07 09:00N 37°57' E 023°38'0 0.0
2017-Nov-07 08:30N 37°57' E 023°38'1 1.8
2017-Nov-07 08:00N 37°56' E 023°37'713.4
2017-Nov-07 07:30N 37°51' E 023°32'713.5
2017-Nov-07 07:00N 37°46' E 023°26'2 3.7
2017-Nov-07 06:30N 37°45' E 023°25'611.2
2017-Nov-07 06:00N 37°49' E 023°30'713.5
2017-Nov-07 05:30N 37°54' E 023°35'4 7.1
2017-Nov-07 05:00N 37°57' E 023°39'0 0.0
2017-Nov-07 04:30N 37°57' E 023°39'0 0.0
2017-Nov-05 17:22N 37°57' E 023°39'0 0.9
2017-Nov-05 17:00N 37°57' E 023°38'612.9
2017-Nov-05 16:30N 37°51' E 023°33'713.8
2017-Nov-05 16:00N 37°47' E 023°27'2 4.9
2017-Nov-05 15:30N 37°45' E 023°25'3 5.3
2017-Nov-05 15:00N 37°43' E 023°23'3 5.4
2017-Nov-05 14:30N 37°45' E 023°25'5 9.4
2017-Nov-05 14:00N 37°49' E 023°29'713.7
2017-Nov-05 13:30N 37°54' E 023°35'4 8.5
2017-Nov-05 13:01N 37°57' E 023°38'0 0.0
2017-Nov-05 12:30N 37°57' E 023°38'0 0.0
2017-Nov-05 12:00N 37°57' E 023°38'0 0.0
2017-Nov-05 11:31N 37°57' E 023°38'3 6.3
2017-Nov-05 11:00N 37°54' E 023°36'713.8
2017-Nov-05 10:31N 37°49' E 023°30'611.6
2017-Nov-05 10:01N 37°45' E 023°25'3 6.7
2017-Nov-05 09:31N 37°43' E 023°22'3 6.8
2017-Nov-05 09:00N 37°45' E 023°25'4 7.9
2017-Nov-05 08:30N 37°48' E 023°28'713.6
2017-Nov-05 08:00N 37°53' E 023°34'510.3
2017-Nov-05 07:30N 37°57' E 023°39'0 0.0
2017-Nov-05 07:00N 37°57' E 023°39'0 0.0
2017-Nov-04 18:54N 37°57' E 023°39'2 4.5
2017-Nov-04 18:31N 37°57' E 023°36'510.2
2017-Nov-04 18:01N 37°53' E 023°33'612.9
2017-Nov-04 17:30N 37°48' E 023°28'4 7.7
2017-Nov-04 17:01N 37°45' E 023°25'3 6.7
2017-Nov-04 16:30N 37°42' E 023°22'0 0.0
2017-Nov-04 16:00N 37°42' E 023°22'0 0.0
2017-Nov-04 15:30N 37°42' E 023°22'0 0.0
2017-Nov-04 15:00N 37°42' E 023°22'4 7.1
2017-Nov-04 14:31N 37°45' E 023°26'510.3
2017-Nov-04 14:00N 37°49' E 023°29'713.7
2017-Nov-04 13:31N 37°54' E 023°35'3 5.4
2017-Nov-04 13:01N 37°57' E 023°36'2 4.4
2017-Nov-04 12:31N 37°55' E 023°36'713.8
2017-Nov-04 12:00N 37°49' E 023°30'612.2
2017-Nov-04 11:31N 37°45' E 023°25'3 6.7
2017-Nov-04 11:00N 37°42' E 023°22'3 6.8
2017-Nov-04 10:30N 37°45' E 023°25'611.6
2017-Nov-04 10:00N 37°49' E 023°30'714.0
2017-Nov-04 09:30N 37°55' E 023°36'3 6.1
2017-Nov-04 09:00N 37°57' E 023°39'0 0.2
2017-Nov-04 08:31N 37°57' E 023°38'713.1
2017-Nov-04 08:00N 37°52' E 023°33'714.0
2017-Nov-04 07:30N 37°47' E 023°27'2 4.8
2017-Nov-04 07:01N 37°45' E 023°25'612.4
2017-Nov-04 06:30N 37°49' E 023°30'713.6
2017-Nov-04 06:00N 37°55' E 023°36'3 5.8
2017-Nov-04 05:30N 37°57' E 023°38'0 0.0
2017-Nov-04 05:00N 37°57' E 023°38'0 0.0
2017-Nov-03 17:10N 37°57' E 023°38'0 0.4
2017-Nov-03 17:01N 37°57' E 023°38'612.9
2017-Nov-03 16:30N 37°52' E 023°33'713.8
2017-Nov-03 16:00N 37°47' E 023°27'4 7.9
2017-Nov-03 15:31N 37°43' E 023°25'0 0.6
2017-Nov-03 15:00N 37°44' E 023°25'4 8.6
2017-Nov-03 14:30N 37°48' E 023°27'713.3
2017-Nov-03 14:00N 37°52' E 023°33'612.2
2017-Nov-03 13:30N 37°57' E 023°39'0 0.0
2017-Nov-03 13:00N 37°57' E 023°39'0 0.4
2017-Nov-03 12:30N 37°57' E 023°38'713.1
2017-Nov-03 12:00N 37°52' E 023°33'713.7
2017-Nov-03 11:31N 37°47' E 023°27'3 6.7
2017-Nov-03 11:00N 37°44' E 023°25'0 0.8
2017-Nov-03 10:30N 37°43' E 023°25'4 8.6
2017-Nov-03 10:00N 37°47' E 023°27'713.8
2017-Nov-03 09:30N 37°52' E 023°33'612.4
2017-Nov-03 09:00N 37°57' E 023°38'0 0.0
2017-Nov-03 08:31N 37°57' E 023°38'3 6.2
2017-Nov-03 08:01N 37°55' E 023°36'713.9
2017-Nov-03 07:31N 37°49' E 023°30'611.6
2017-Nov-03 07:00N 37°45' E 023°25'1 2.4
2017-Nov-03 06:30N 37°46' E 023°25'713.6
2017-Nov-03 06:01N 37°50' E 023°31'713.7
2017-Nov-03 05:30N 37°56' E 023°36'2 3.7
2017-Nov-03 05:01N 37°57' E 023°39'0 0.0
2017-Nov-03 04:31N 37°57' E 023°39'  
Track history (hours):
 
Tides and Currents Weather Stations Pressure Air Temp Water Temp Dewpoint Dewpoint Depression Visibility Wind Speed Wind Dir Waves Ship Positions

Achaeos

Last reported at 2017-Nov-12 17:26 UTC. Time now 2017-Nov-22 22:18 UTC.
Position N 37°57' E 023°39'.
Warning: this ship's position is 10 days out of date.

Length 87 m; draft 3.5 m.

Type: Passenger vessel. MMSI: 239056300.

Date/timePositionNaut miles runAvg speedWind from/ knotsBaromVisibWave heightAir tempDewpointWater temp
2017-Nov-12 17:26N 37°57' E 023°39'1 2.7
2017-Nov-12 17:01N 37°56' E 023°37'713.4
2017-Nov-12 16:30N 37°51' E 023°32'713.5
2017-Nov-12 16:00N 37°46' E 023°26'2 3.5
2017-Nov-12 15:30N 37°45' E 023°25'3 5.6
2017-Nov-12 15:00N 37°43' E 023°23'3 5.6
2017-Nov-12 14:30N 37°45' E 023°25'4 8.3
2017-Nov-12 14:01N 37°48' E 023°28'713.4
2017-Nov-12 13:31N 37°53' E 023°34'510.1
2017-Nov-12 13:00N 37°57' E 023°39'0 0.0
2017-Nov-12 12:30N 37°57' E 023°39'0 0.0
2017-Nov-12 12:00N 37°57' E 023°39'0 0.0
2017-Nov-12 11:30N 37°57' E 023°39'3 7.0
2017-Nov-12 11:00N 37°54' E 023°35'713.6
2017-Nov-12 10:31N 37°49' E 023°30'611.2
2017-Nov-12 10:00N 37°45' E 023°25'3 6.8
2017-Nov-12 09:31N 37°43' E 023°22'3 5.6
2017-Nov-12 09:00N 37°44' E 023°25'4 7.4
2017-Nov-12 08:31N 37°47' E 023°27'713.4
2017-Nov-12 08:00N 37°52' E 023°33'612.5
2017-Nov-12 07:30N 37°57' E 023°39'0 0.0
2017-Nov-12 07:00N 37°57' E 023°39'0 0.0
2017-Nov-12 06:30N 37°57' E 023°39'0 0.0
2017-Nov-12 06:00N 37°57' E 023°39'0 0.0
2017-Nov-11 17:18N 37°57' E 023°39'0 0.0
2017-Nov-11 17:00N 37°57' E 023°39'510.0
2017-Nov-11 16:30N 37°53' E 023°34'713.5
2017-Nov-11 16:00N 37°48' E 023°28'4 8.3
2017-Nov-11 15:30N 37°45' E 023°25'3 6.1
2017-Nov-11 15:00N 37°47' E 023°27'713.7
2017-Nov-11 14:30N 37°52' E 023°33'612.2
2017-Nov-11 14:00N 37°57' E 023°39'0 0.0
2017-Nov-11 13:30N 37°57' E 023°39'0 0.0
2017-Nov-11 13:00N 37°57' E 023°39'510.3
2017-Nov-11 12:30N 37°53' E 023°34'713.5
2017-Nov-11 12:00N 37°48' E 023°28'4 8.6
2017-Nov-11 11:30N 37°44' E 023°25'3 6.1
2017-Nov-11 11:01N 37°43' E 023°22'4 7.6
2017-Nov-11 10:31N 37°46' E 023°25'713.6
2017-Nov-11 10:00N 37°50' E 023°31'713.8
2017-Nov-11 09:30N 37°56' E 023°37'2 3.5
2017-Nov-11 09:00N 37°57' E 023°39'0 0.0
2017-Nov-11 08:30N 37°57' E 023°39'0 0.0
2017-Nov-11 08:00N 37°57' E 023°39'0 0.0
2017-Nov-11 06:51N 37°57' E 023°39'0 0.0
2017-Nov-11 06:30N 37°57' E 023°39'0 0.0
2017-Nov-11 06:00N 37°57' E 023°39'0 0.0
2017-Nov-11 05:30N 37°57' E 023°39'0 0.0
2017-Nov-11 05:01N 37°57' E 023°39'0 0.0
2017-Nov-11 04:30N 37°57' E 023°39'0 0.0
2017-Nov-11 04:00N 37°57' E 023°39'0 0.0
2017-Nov-11 03:30N 37°57' E 023°39'0 0.0
2017-Nov-11 03:00N 37°57' E 023°39'0 0.0
2017-Nov-11 02:30N 37°57' E 023°39'0 0.0
2017-Nov-11 02:00N 37°57' E 023°39'0 0.0
2017-Nov-11 01:30N 37°57' E 023°39'0 0.0
2017-Nov-11 01:00N 37°57' E 023°39'0 0.0
2017-Nov-11 00:31N 37°57' E 023°39'0 0.0
2017-Nov-11 00:00N 37°57' E 023°39'0 0.0
2017-Nov-10 23:31N 37°57' E 023°39'0 0.0
2017-Nov-10 23:00N 37°57' E 023°39'0 0.0
2017-Nov-10 22:31N 37°57' E 023°39'0 0.0
2017-Nov-10 22:00N 37°57' E 023°39'0 0.0
2017-Nov-10 21:30N 37°57' E 023°39'0 0.0
2017-Nov-10 21:01N 37°57' E 023°39'0 0.0
2017-Nov-10 20:30N 37°57' E 023°39'0 0.0
2017-Nov-10 20:00N 37°57' E 023°39'0 0.0
2017-Nov-10 19:31N 37°57' E 023°39'0 0.0
2017-Nov-10 19:00N 37°57' E 023°39'0 0.0
2017-Nov-10 18:30N 37°57' E 023°39'0 0.0
2017-Nov-10 18:00N 37°57' E 023°39'0 0.0
2017-Nov-10 17:30N 37°57' E 023°39'0 0.5
2017-Nov-10 17:00N 37°57' E 023°38'612.9
2017-Nov-10 16:30N 37°52' E 023°33'713.7
2017-Nov-10 16:00N 37°47' E 023°26'4 7.4
2017-Nov-10 15:30N 37°44' E 023°25'0 0.4
2017-Nov-10 15:00N 37°44' E 023°25'4 8.5
2017-Nov-10 14:30N 37°48' E 023°27'713.4
2017-Nov-10 14:00N 37°52' E 023°33'612.2
2017-Nov-10 13:30N 37°57' E 023°39'0 0.0
2017-Nov-10 13:00N 37°57' E 023°39'1 1.0
2017-Nov-10 12:30N 37°56' E 023°38'713.1
2017-Nov-10 12:00N 37°51' E 023°33'713.8
2017-Nov-10 11:31N 37°47' E 023°26'4 8.2
2017-Nov-10 11:00N 37°43' E 023°24'1 2.4
2017-Nov-10 10:30N 37°44' E 023°25'4 8.8
2017-Nov-10 10:01N 37°48' E 023°28'713.7
2017-Nov-10 09:30N 37°53' E 023°34'510.9
2017-Nov-10 09:00N 37°57' E 023°39'0 0.0
2017-Nov-10 08:30N 37°57' E 023°39'0 0.0
2017-Nov-10 08:00N 37°57' E 023°39'0 0.0
2017-Nov-09 16:21N 37°57' E 023°39'1 3.5
2017-Nov-09 16:01N 37°56' E 023°37'713.4
2017-Nov-09 15:31N 37°51' E 023°32'713.6
2017-Nov-09 15:01N 37°46' E 023°26'2 3.5
2017-Nov-09 14:31N 37°45' E 023°25'3 6.3
2017-Nov-09 14:01N 37°47' E 023°27'713.6
2017-Nov-09 13:30N 37°52' E 023°34'612.0
2017-Nov-09 13:01N 37°57' E 023°39'0 0.0
2017-Nov-09 12:31N 37°57' E 023°39'4 7.2
2017-Nov-09 12:01N 37°54' E 023°35'713.3
2017-Nov-09 11:30N 37°49' E 023°30'511.2
2017-Nov-09 11:00N 37°45' E 023°25'13 8.5
2017-Nov-09 09:32N 37°54' E 023°35'012.3
2017-Nov-09 09:30N 37°55' E 023°36'3 6.2
2017-Nov-09 09:00N 37°57' E 023°39'811.8
2017-Nov-09 08:19N 37°51' E 023°32'414.0
2017-Nov-09 08:00N 37°48' E 023°28'3 7.0
2017-Nov-09 07:30N 37°45' E 023°25'3 6.2
2017-Nov-09 07:00N 37°47' E 023°27'713.6
2017-Nov-09 06:30N 37°52' E 023°33'612.2
2017-Nov-09 06:00N 37°57' E 023°38'0 0.0
2017-Nov-09 05:30N 37°57' E 023°38'0 0.0
2017-Nov-09 05:00N 37°57' E 023°38'0 0.0
2017-Nov-08 18:41N 37°57' E 023°38'0 0.6
2017-Nov-08 18:30N 37°57' E 023°38'612.9
2017-Nov-08 18:00N 37°52' E 023°33'713.8
2017-Nov-08 17:30N 37°47' E 023°27'3 5.1
2017-Nov-08 17:00N 37°45' E 023°25'612.5
2017-Nov-08 16:31N 37°50' E 023°30'713.6
2017-Nov-08 16:01N 37°55' E 023°36'3 5.8
2017-Nov-08 15:31N 37°57' E 023°38'3 6.5
2017-Nov-08 15:00N 37°54' E 023°36'713.9
2017-Nov-08 14:31N 37°49' E 023°30'611.3
2017-Nov-08 14:00N 37°45' E 023°25'3 6.0
2017-Nov-08 13:30N 37°47' E 023°27'713.5
2017-Nov-08 13:00N 37°52' E 023°33'612.5
2017-Nov-08 12:30N 37°57' E 023°39'0 0.0
2017-Nov-08 12:00N 37°57' E 023°39'0 0.0
2017-Nov-08 11:30N 37°57' E 023°39'0 0.0
2017-Nov-08 11:00N 37°57' E 023°39'0 0.0
2017-Nov-08 10:30N 37°57' E 023°39'0 0.0
2017-Nov-08 10:00N 37°57' E 023°39'0 0.0
2017-Nov-08 09:30N 37°57' E 023°39'0 0.0
2017-Nov-08 09:00N 37°57' E 023°39'0 0.0
2017-Nov-08 08:30N 37°57' E 023°39'3 5.6
2017-Nov-08 08:00N 37°55' E 023°36'713.6
2017-Nov-08 07:30N 37°50' E 023°30'612.5
2017-Nov-08 07:00N 37°45' E 023°25'2 3.2
2017-Nov-08 06:30N 37°47' E 023°26'713.5
2017-Nov-08 06:00N 37°51' E 023°32'713.6
2017-Nov-08 05:30N 37°56' E 023°37'1 1.8
2017-Nov-08 05:00N 37°57' E 023°39'0 0.0
2017-Nov-08 04:30N 37°57' E 023°39'0 0.0
2017-Nov-07 17:11N 37°57' E 023°39'0 0.4
2017-Nov-07 17:00N 37°57' E 023°38'612.5
2017-Nov-07 16:30N 37°52' E 023°33'714.0
2017-Nov-07 16:00N 37°47' E 023°27'3 5.2
2017-Nov-07 15:30N 37°45' E 023°25'0 0.0
2017-Nov-07 15:00N 37°45' E 023°25'4 7.7
2017-Nov-07 14:30N 37°48' E 023°28'713.4
2017-Nov-07 14:00N 37°53' E 023°34'510.8
2017-Nov-07 13:30N 37°57' E 023°39'0 0.0
2017-Nov-07 13:00N 37°57' E 023°39'0 0.0
2017-Nov-07 12:30N 37°57' E 023°39'0 0.2
2017-Nov-07 12:00N 37°57' E 023°38'713.1
2017-Nov-07 11:31N 37°52' E 023°33'714.1
2017-Nov-07 11:00N 37°47' E 023°26'2 4.8
2017-Nov-07 10:30N 37°45' E 023°25'3 6.0
2017-Nov-07 10:00N 37°47' E 023°27'713.4
2017-Nov-07 09:30N 37°52' E 023°33'612.7
2017-Nov-07 09:00N 37°57' E 023°38'0 0.0
2017-Nov-07 08:30N 37°57' E 023°38'1 1.8
2017-Nov-07 08:00N 37°56' E 023°37'713.4
2017-Nov-07 07:30N 37°51' E 023°32'713.5
2017-Nov-07 07:00N 37°46' E 023°26'2 3.7
2017-Nov-07 06:30N 37°45' E 023°25'611.2
2017-Nov-07 06:00N 37°49' E 023°30'713.5
2017-Nov-07 05:30N 37°54' E 023°35'4 7.1
2017-Nov-07 05:00N 37°57' E 023°39'0 0.0
2017-Nov-07 04:30N 37°57' E 023°39'0 0.0
2017-Nov-05 17:22N 37°57' E 023°39'0 0.9
2017-Nov-05 17:00N 37°57' E 023°38'612.9
2017-Nov-05 16:30N 37°51' E 023°33'713.8
2017-Nov-05 16:00N 37°47' E 023°27'2 4.9
2017-Nov-05 15:30N 37°45' E 023°25'3 5.3
2017-Nov-05 15:00N 37°43' E 023°23'3 5.4
2017-Nov-05 14:30N 37°45' E 023°25'5 9.4
2017-Nov-05 14:00N 37°49' E 023°29'713.7
2017-Nov-05 13:30N 37°54' E 023°35'4 8.5
2017-Nov-05 13:01N 37°57' E 023°38'0 0.0
2017-Nov-05 12:30N 37°57' E 023°38'0 0.0
2017-Nov-05 12:00N 37°57' E 023°38'0 0.0
2017-Nov-05 11:31N 37°57' E 023°38'3 6.3
2017-Nov-05 11:00N 37°54' E 023°36'713.8
2017-Nov-05 10:31N 37°49' E 023°30'611.6
2017-Nov-05 10:01N 37°45' E 023°25'3 6.7
2017-Nov-05 09:31N 37°43' E 023°22'3 6.8
2017-Nov-05 09:00N 37°45' E 023°25'4 7.9
2017-Nov-05 08:30N 37°48' E 023°28'713.6
2017-Nov-05 08:00N 37°53' E 023°34'510.3
2017-Nov-05 07:30N 37°57' E 023°39'0 0.0
2017-Nov-05 07:00N 37°57' E 023°39'0 0.0
2017-Nov-04 18:54N 37°57' E 023°39'2 4.5
2017-Nov-04 18:31N 37°57' E 023°36'510.2
2017-Nov-04 18:01N 37°53' E 023°33'612.9
2017-Nov-04 17:30N 37°48' E 023°28'4 7.7
2017-Nov-04 17:01N 37°45' E 023°25'3 6.7
2017-Nov-04 16:30N 37°42' E 023°22'0 0.0
2017-Nov-04 16:00N 37°42' E 023°22'0 0.0
2017-Nov-04 15:30N 37°42' E 023°22'0 0.0
2017-Nov-04 15:00N 37°42' E 023°22'4 7.1
2017-Nov-04 14:31N 37°45' E 023°26'510.3
2017-Nov-04 14:00N 37°49' E 023°29'713.7
2017-Nov-04 13:31N 37°54' E 023°35'3 5.4
2017-Nov-04 13:01N 37°57' E 023°36'2 4.4
2017-Nov-04 12:31N 37°55' E 023°36'713.8
2017-Nov-04 12:00N 37°49' E 023°30'612.2
2017-Nov-04 11:31N 37°45' E 023°25'3 6.7
2017-Nov-04 11:00N 37°42' E 023°22'3 6.8
2017-Nov-04 10:30N 37°45' E 023°25'611.6
2017-Nov-04 10:00N 37°49' E 023°30'714.0
2017-Nov-04 09:30N 37°55' E 023°36'3 6.1
2017-Nov-04 09:00N 37°57' E 023°39'0 0.2
2017-Nov-04 08:31N 37°57' E 023°38'713.1
2017-Nov-04 08:00N 37°52' E 023°33'714.0
2017-Nov-04 07:30N 37°47' E 023°27'2 4.8
2017-Nov-04 07:01N 37°45' E 023°25'612.4
2017-Nov-04 06:30N 37°49' E 023°30'713.6
2017-Nov-04 06:00N 37°55' E 023°36'3 5.8
2017-Nov-04 05:30N 37°57' E 023°38'0 0.0
2017-Nov-04 05:00N 37°57' E 023°38'0 0.0
2017-Nov-03 17:10N 37°57' E 023°38'0 0.4
2017-Nov-03 17:01N 37°57' E 023°38'612.9
2017-Nov-03 16:30N 37°52' E 023°33'713.8
2017-Nov-03 16:00N 37°47' E 023°27'4 7.9
2017-Nov-03 15:31N 37°43' E 023°25'0 0.6
2017-Nov-03 15:00N 37°44' E 023°25'4 8.6
2017-Nov-03 14:30N 37°48' E 023°27'713.3
2017-Nov-03 14:00N 37°52' E 023°33'612.2
2017-Nov-03 13:30N 37°57' E 023°39'0 0.0
2017-Nov-03 13:00N 37°57' E 023°39'0 0.4
2017-Nov-03 12:30N 37°57' E 023°38'713.1
2017-Nov-03 12:00N 37°52' E 023°33'713.7
2017-Nov-03 11:31N 37°47' E 023°27'3 6.7
2017-Nov-03 11:00N 37°44' E 023°25'0 0.8
2017-Nov-03 10:30N 37°43' E 023°25'4 8.6
2017-Nov-03 10:00N 37°47' E 023°27'713.8
2017-Nov-03 09:30N 37°52' E 023°33'612.4
2017-Nov-03 09:00N 37°57' E 023°38'0 0.0
2017-Nov-03 08:31N 37°57' E 023°38'3 6.2
2017-Nov-03 08:01N 37°55' E 023°36'713.9
2017-Nov-03 07:31N 37°49' E 023°30'611.6
2017-Nov-03 07:00N 37°45' E 023°25'1 2.4
2017-Nov-03 06:30N 37°46' E 023°25'713.6
2017-Nov-03 06:01N 37°50' E 023°31'713.7
2017-Nov-03 05:30N 37°56' E 023°36'2 3.7
2017-Nov-03 05:01N 37°57' E 023°39'0 0.0
2017-Nov-03 04:31N 37°57' E 023°39'  

Dump ship's entire track history